< < Back
Terminal Aerodrome Forecast


Current Version              Previous Versions:   1  2  3  4  5  6  7  8  9  

Terminal Aerodrome Forecast

918
FTUS44 KBMX 011715 AAB
TAFBHM
TAF AMD
KBHM 011715Z 0117/0212 24008KT P6SM SCT040 BKN200
     FM011800 26010KT P6SM VCTS BKN040CB
     FM020200 24005KT P6SM OVC200=

Latest METAR

554
SAUS70 KWBC 020100 RRC
MTRBHM
METAR KBHM 020053Z 17006KT 10SM BKN250 23/22 A3006 RMK AO2 LTG DSNT SE
AND S SLP172 T02280217


USA.gov is the U.S. government's official web portal to all federal, state and local government web resources and services.